createdAt,value
2023-01-29T00:00:28.999Z,100959.05
2023-01-29T00:02:00.227Z,100959.84
2023-01-29T00:03:52.006Z,100953.69
2023-01-29T00:04:26.570Z,100951.88
2023-01-29T00:05:10.002Z,100954.41
2023-01-29T00:05:49.856Z,100947.89
2023-01-29T00:06:25.860Z,100942.66
2023-01-29T00:06:59.449Z,100945.95
2023-01-29T00:08:10.330Z,100937.15
2023-01-29T00:09:21.106Z,100939.02
2023-01-29T00:11:09.734Z,100943.27
2023-01-29T00:12:20.473Z,100939.60
2023-01-29T00:12:53.346Z,100938.05
2023-01-29T00:13:26.215Z,100944.02
2023-01-29T00:14:36.973Z,100940.67
2023-01-29T00:15:09.946Z,100936.27
2023-01-29T00:16:58.793Z,100929.27
2023-01-29T00:17:31.640Z,100919.65
2023-01-29T00:18:42.733Z,100919.95
2023-01-29T00:19:15.703Z,100917.67
2023-01-29T00:21:36.860Z,100914.73
2023-01-29T00:22:09.787Z,100912.63
2023-01-29T00:23:20.654Z,100913.24
2023-01-29T00:25:47.985Z,100919.48
2023-01-29T00:26:21.180Z,100915.30
2023-01-29T00:27:31.867Z,100917.58
2023-01-29T00:28:04.975Z,100913.73
2023-01-29T00:28:37.950Z,100917.70
2023-01-29T00:30:08.618Z,100913.98
2023-01-29T00:30:41.591Z,100917.33
2023-01-29T00:31:16.313Z,100917.11
2023-01-29T00:31:49.439Z,100918.38
2023-01-29T00:32:22.575Z,100917.72
2023-01-29T00:32:55.560Z,100923.40
2023-01-29T00:33:29.124Z,100921.90
2023-01-29T00:34:39.777Z,100926.08
2023-01-29T00:36:28.521Z,100920.23
2023-01-29T00:37:04.942Z,100922.46
2023-01-29T00:37:38.250Z,100923.13
2023-01-29T00:38:11.199Z,100921.68
2023-01-29T00:38:44.420Z,100923.20
2023-01-29T00:39:17.376Z,100920.79
2023-01-29T00:39:50.347Z,100922.89
2023-01-29T00:41:33.874Z,100918.27
2023-01-29T00:42:25.694Z,100917.34
2023-01-29T00:43:17.075Z,100919.34
2023-01-29T00:44:08.807Z,100920.23
2023-01-29T00:45:38.821Z,100919.08
2023-01-29T00:46:12.019Z,100925.55
2023-01-29T00:46:45.199Z,100925.38
2023-01-29T00:47:33.947Z,100921.52
2023-01-29T00:48:07.210Z,100930.11
2023-01-29T00:49:17.886Z,100923.69
2023-01-29T00:50:28.630Z,100916.60
2023-01-29T00:51:40.185Z,100917.48
2023-01-29T00:52:25.224Z,100922.86
2023-01-29T00:53:35.993Z,100923.30
2023-01-29T00:54:08.937Z,100927.69
2023-01-29T00:54:41.789Z,100928.55
2023-01-29T00:55:52.451Z,100923.66
2023-01-29T00:56:26.139Z,100922.44
2023-01-29T00:56:59.062Z,100930.23
2023-01-29T00:58:10.333Z,100929.98
2023-01-29T00:59:21.091Z,100925.63
2023-01-29T01:02:06.125Z,100923.86
2023-01-29T01:02:57.884Z,100922.02
2023-01-29T01:04:12.510Z,100921.86
2023-01-29T01:04:45.410Z,100919.80
2023-01-29T01:05:18.750Z,100917.50
2023-01-29T01:05:51.657Z,100917.13
2023-01-29T01:07:02.312Z,100912.23
2023-01-29T01:07:35.210Z,100916.86
2023-01-29T01:08:27.996Z,100916.79
2023-01-29T01:09:19.121Z,100919.55
2023-01-29T01:10:10.718Z,100921.52
2023-01-29T01:10:44.425Z,100923.71
2023-01-29T01:11:17.389Z,100919.23
2023-01-29T01:11:50.395Z,100922.41
2023-01-29T01:13:03.174Z,100920.83
2023-01-29T01:14:14.336Z,100922.54
2023-01-29T01:17:32.879Z,100924.35
2023-01-29T01:18:43.641Z,100924.60
2023-01-29T01:19:54.575Z,100927.36
2023-01-29T01:20:28.633Z,100926.43
2023-01-29T01:21:39.407Z,100917.96
2023-01-29T01:22:12.383Z,100919.66
2023-01-29T01:23:23.170Z,100917.97
2023-01-29T01:23:56.131Z,100915.12
2023-01-29T01:24:31.223Z,100918.34
2023-01-29T01:25:04.464Z,100914.77
2023-01-29T01:26:53.499Z,100921.23
2023-01-29T01:27:26.615Z,100920.45
2023-01-29T01:28:31.492Z,100919.34
2023-01-29T01:30:59.576Z,100916.18
2023-01-29T01:32:10.298Z,100912.20
2023-01-29T01:33:22.662Z,100914.20
2023-01-29T01:35:11.707Z,100898.88
2023-01-29T01:35:44.655Z,100894.32
2023-01-29T01:36:18.542Z,100894.80
2023-01-29T01:36:51.530Z,100893.92
2023-01-29T01:38:44.693Z,100895.38
2023-01-29T01:39:17.739Z,100893.96
2023-01-29T01:40:29.224Z,100895.72
2023-01-29T01:42:19.519Z,100895.67
2023-01-29T01:42:56.792Z,100897.69
2023-01-29T01:43:48.602Z,100894.85
2023-01-29T01:45:15.634Z,100898.27
2023-01-29T01:45:48.689Z,100899.77
2023-01-29T01:47:01.043Z,100901.91
2023-01-29T01:49:56.931Z,100900.82
2023-01-29T01:50:33.591Z,100894.84
2023-01-29T01:51:06.620Z,100895.72
2023-01-29T01:52:19.108Z,100892.56
2023-01-29T01:54:06.042Z,100888.17
2023-01-29T01:54:38.974Z,100893.20
2023-01-29T01:55:55.987Z,100893.80
2023-01-29T01:56:40.544Z,100894.42
2023-01-29T01:57:17.325Z,100895.01
2023-01-29T01:58:47.887Z,100892.84
2023-01-29T01:59:20.846Z,100894.88
2023-01-29T02:00:00.136Z,100893.99
2023-01-29T02:00:33.224Z,100888.79
2023-01-29T02:01:06.985Z,100893.42
2023-01-29T02:02:39.545Z,100892.52
2023-01-29T02:03:31.199Z,100888.21
2023-01-29T02:04:30.243Z,100891.73
2023-01-29T02:05:21.578Z,100886.27
2023-01-29T02:06:13.735Z,100890.73
2023-01-29T02:08:01.696Z,100881.38
2023-01-29T02:09:15.055Z,100878.61
2023-01-29T02:10:37.846Z,100881.09
2023-01-29T02:11:10.779Z,100878.63
2023-01-29T02:12:21.634Z,100877.91
2023-01-29T02:13:32.487Z,100879.78
2023-01-29T02:15:58.983Z,100866.40
2023-01-29T02:17:16.594Z,100864.48
2023-01-29T02:18:27.295Z,100871.53
2023-01-29T02:20:16.479Z,100869.85
2023-01-29T02:21:01.679Z,100866.35
2023-01-29T02:23:44.376Z,100865.64
2023-01-29T02:24:50.439Z,100863.09
2023-01-29T02:25:42.343Z,100850.36
2023-01-29T02:27:38.362Z,100840.52
2023-01-29T02:29:25.377Z,100857.20
2023-01-29T02:30:01.028Z,100848.11
2023-01-29T02:30:34.499Z,100853.20
2023-01-29T02:31:31.973Z,100846.27
2023-01-29T02:32:17.511Z,100839.02
2023-01-29T02:33:02.537Z,100836.22
2023-01-29T02:33:57.052Z,100835.39
2023-01-29T02:34:32.578Z,100846.77
2023-01-29T02:35:28.487Z,100844.40
2023-01-29T02:36:04.149Z,100837.56
2023-01-29T02:37:03.314Z,100834.66
2023-01-29T02:37:47.646Z,100834.23
2023-01-29T02:39:44.177Z,100839.79
2023-01-29T02:40:37.167Z,100837.92
2023-01-29T02:41:27.296Z,100828.77
2023-01-29T02:42:02.428Z,100830.94
2023-01-29T02:42:39.191Z,100830.99
2023-01-29T02:43:35.709Z,100834.67
2023-01-29T02:44:38.582Z,100838.45
2023-01-29T02:45:16.202Z,100833.08
2023-01-29T02:45:49.057Z,100835.71
2023-01-29T02:46:24.972Z,100830.11
2023-01-29T02:47:58.986Z,100837.34
2023-01-29T02:48:41.683Z,100846.52
2023-01-29T02:49:30.317Z,100842.47
2023-01-29T02:51:11.183Z,100830.09
2023-01-29T02:52:44.824Z,100832.54
2023-01-29T02:54:06.721Z,100826.29
2023-01-29T02:54:47.350Z,100835.58
2023-01-29T02:55:26.283Z,100830.52
2023-01-29T02:58:44.507Z,100838.53
2023-01-29T02:59:20.606Z,100827.23
2023-01-29T03:00:03.363Z,100826.02
2023-01-29T03:00:38.802Z,100824.20
2023-01-29T03:01:16.286Z,100822.75
2023-01-29T03:01:52.488Z,100828.20
2023-01-29T03:03:40.548Z,100825.64
2023-01-29T03:04:18.770Z,100828.14
2023-01-29T03:06:06.471Z,100826.02
2023-01-29T03:07:42.843Z,100825.38
2023-01-29T03:08:16.910Z,100820.05
2023-01-29T03:09:14.987Z,100814.67
2023-01-29T03:11:58.858Z,100812.90
2023-01-29T03:13:15.524Z,100816.75
2023-01-29T03:15:01.312Z,100815.88
2023-01-29T03:16:27.383Z,100822.98
2023-01-29T03:17:51.919Z,100824.60
2023-01-29T03:18:27.899Z,100823.85
2023-01-29T03:20:26.605Z,100820.88
2023-01-29T03:22:01.763Z,100826.84
2023-01-29T03:23:23.989Z,100811.80
2023-01-29T03:24:15.952Z,100815.24
2023-01-29T03:25:15.911Z,100813.84
2023-01-29T03:26:08.136Z,100807.80
2023-01-29T03:26:59.650Z,100807.13
2023-01-29T03:28:05.692Z,100803.47
2023-01-29T03:28:57.199Z,100815.02
2023-01-29T03:31:25.191Z,100802.63
2023-01-29T03:32:04.349Z,100804.48
2023-01-29T03:32:38.797Z,100800.98
2023-01-29T03:33:54.167Z,100793.48
2023-01-29T03:34:34.993Z,100799.23
2023-01-29T03:35:09.116Z,100796.60
2023-01-29T03:35:47.653Z,100798.71
2023-01-29T03:36:38.017Z,100794.32
2023-01-29T03:37:15.580Z,100796.45
2023-01-29T03:38:31.870Z,100792.90
2023-01-29T03:39:06.483Z,100788.70
2023-01-29T03:39:39.639Z,100795.08
2023-01-29T03:40:51.852Z,100789.10
2023-01-29T03:44:18.105Z,100783.45
2023-01-29T03:44:53.926Z,100785.27
2023-01-29T03:45:29.733Z,100781.21
2023-01-29T03:46:46.975Z,100778.71
2023-01-29T03:48:13.716Z,100775.60
2023-01-29T03:49:03.273Z,100780.35
2023-01-29T03:49:59.399Z,100781.62
2023-01-29T03:50:38.809Z,100768.95
2023-01-29T03:52:15.885Z,100776.35
2023-01-29T03:52:51.930Z,100782.36
2023-01-29T03:53:38.523Z,100780.25
2023-01-29T03:54:18.974Z,100784.92
2023-01-29T03:55:11.899Z,100782.56
2023-01-29T03:56:02.408Z,100783.71
2023-01-29T03:56:57.489Z,100785.78
2023-01-29T03:57:58.354Z,100799.11
2023-01-29T03:58:42.555Z,100790.17
2023-01-29T03:59:20.540Z,100787.23
2023-01-29T04:00:52.700Z,100793.61
2023-01-29T04:04:17.149Z,100781.55
2023-01-29T04:04:52.084Z,100781.02
2023-01-29T04:05:26.314Z,100777.52
2023-01-29T04:06:50.386Z,100775.23
2023-01-29T04:09:48.562Z,100774.05
2023-01-29T04:12:32.047Z,100765.20
2023-01-29T04:13:10.614Z,100762.59
2023-01-29T04:13:43.783Z,100767.63
2023-01-29T04:14:17.162Z,100763.60
2023-01-29T04:15:30.152Z,100762.08
2023-01-29T04:16:42.396Z,100759.34
2023-01-29T04:17:56.502Z,100754.66
2023-01-29T04:18:29.550Z,100750.86
2023-01-29T04:19:40.549Z,100757.65
2023-01-29T04:20:13.945Z,100753.06
2023-01-29T04:20:47.066Z,100755.33
2023-01-29T04:21:20.280Z,100745.72
2023-01-29T04:21:56.219Z,100744.30
2023-01-29T04:23:23.263Z,100747.75
2023-01-29T04:23:56.390Z,100745.70
2023-01-29T04:24:29.589Z,100744.08
2023-01-29T04:25:08.625Z,100752.95
2023-01-29T04:26:28.857Z,100749.80
2023-01-29T04:27:12.329Z,100747.04
2023-01-29T04:28:08.957Z,100740.38
2023-01-29T04:30:18.903Z,100747.71
2023-01-29T04:31:52.625Z,100739.98
2023-01-29T04:32:32.926Z,100737.43
2023-01-29T04:33:21.788Z,100742.10
2023-01-29T04:34:16.498Z,100744.91
2023-01-29T04:34:59.522Z,100740.59
2023-01-29T04:35:47.813Z,100753.14
2023-01-29T04:36:39.626Z,100742.36
2023-01-29T04:37:17.719Z,100738.55
2023-01-29T04:37:56.634Z,100735.35
2023-01-29T04:40:20.505Z,100729.46
2023-01-29T04:41:09.658Z,100726.47
2023-01-29T04:41:46.519Z,100730.48
2023-01-29T04:43:05.232Z,100723.89
2023-01-29T04:44:33.643Z,100717.30
2023-01-29T04:45:17.057Z,100718.21
2023-01-29T04:46:08.784Z,100719.79
2023-01-29T04:46:49.126Z,100712.05
2023-01-29T04:48:07.869Z,100715.81
2023-01-29T04:48:40.831Z,100713.36
2023-01-29T04:49:36.235Z,100711.82
2023-01-29T04:50:22.247Z,100711.00
2023-01-29T04:51:01.224Z,100711.33
2023-01-29T04:52:33.485Z,100715.17
2023-01-29T04:53:40.252Z,100714.38
2023-01-29T04:54:26.440Z,100710.92
2023-01-29T04:55:06.783Z,100709.53
2023-01-29T04:56:37.602Z,100710.77
2023-01-29T04:57:13.465Z,100713.40
2023-01-29T04:58:13.745Z,100709.02
2023-01-29T04:58:52.165Z,100714.49
2023-01-29T04:59:33.636Z,100715.08
2023-01-29T05:02:08.163Z,100714.07
2023-01-29T05:03:19.068Z,100712.04
2023-01-29T05:03:51.992Z,100709.04
2023-01-29T05:05:02.650Z,100715.93
2023-01-29T05:06:51.987Z,100726.19
2023-01-29T05:07:25.187Z,100718.34
2023-01-29T05:07:58.136Z,100712.66
2023-01-29T05:08:31.239Z,100707.58
2023-01-29T05:11:37.813Z,100708.30
2023-01-29T05:12:51.913Z,100708.30
2023-01-29T05:14:03.713Z,100703.81
2023-01-29T05:14:36.667Z,100711.24
2023-01-29T05:15:12.528Z,100713.45
2023-01-29T05:15:49.696Z,100711.50
2023-01-29T05:17:05.051Z,100717.35
2023-01-29T05:17:37.953Z,100713.70
2023-01-29T05:18:48.721Z,100720.15
2023-01-29T05:20:17.209Z,100719.15
2023-01-29T05:20:50.472Z,100717.41
2023-01-29T05:22:39.883Z,100719.06
2023-01-29T05:23:20.279Z,100714.04
2023-01-29T05:25:32.744Z,100713.98
2023-01-29T05:26:06.073Z,100711.16
2023-01-29T05:26:57.365Z,100709.78
2023-01-29T05:27:51.724Z,100706.45
2023-01-29T05:31:03.103Z,100711.11
2023-01-29T05:31:36.237Z,100704.18
2023-01-29T05:32:09.281Z,100702.42
2023-01-29T05:33:30.877Z,100706.50
2023-01-29T05:35:19.661Z,100708.07
2023-01-29T05:36:30.910Z,100702.39
2023-01-29T05:37:41.908Z,100708.00
2023-01-29T05:38:15.158Z,100704.30
2023-01-29T05:38:48.127Z,100700.43
2023-01-29T05:39:21.308Z,100698.27
2023-01-29T05:40:33.731Z,100712.87
2023-01-29T05:41:06.710Z,100712.67
2023-01-29T05:41:39.641Z,100706.23
2023-01-29T05:42:51.074Z,100706.92
2023-01-29T05:45:18.908Z,100714.63
2023-01-29T05:45:56.553Z,100710.39
2023-01-29T05:46:29.548Z,100710.12
2023-01-29T05:47:05.179Z,100706.68
2023-01-29T05:47:38.254Z,100714.59
2023-01-29T05:48:11.329Z,100710.90
2023-01-29T05:48:46.120Z,100708.54
2023-01-29T05:49:20.630Z,100710.42
2023-01-29T05:49:53.630Z,100717.45
2023-01-29T05:50:26.912Z,100702.39
2023-01-29T05:51:01.428Z,100706.23
2023-01-29T05:52:49.966Z,100720.14
2023-01-29T05:53:22.932Z,100697.25
2023-01-29T05:55:11.523Z,100697.45
2023-01-29T05:56:23.776Z,100685.83
2023-01-29T05:56:56.643Z,100679.18
2023-01-29T05:57:29.617Z,100682.42
2023-01-29T05:58:40.375Z,100677.08
2023-01-29T05:59:51.286Z,100681.86
2023-01-29T06:01:12.233Z,100673.65
2023-01-29T06:01:45.259Z,100665.45
2023-01-29T06:02:18.302Z,100666.80
2023-01-29T06:02:51.353Z,100666.60
2023-01-29T06:03:24.402Z,100667.04
2023-01-29T06:03:57.293Z,100665.60
2023-01-29T06:05:08.984Z,100681.75
2023-01-29T06:06:19.854Z,100681.02
2023-01-29T06:07:30.560Z,100684.55
2023-01-29T06:08:41.668Z,100677.27
2023-01-29T06:09:52.531Z,100676.92
2023-01-29T06:12:19.372Z,100673.19
2023-01-29T06:13:30.233Z,100666.91
2023-01-29T06:14:42.018Z,100665.03
2023-01-29T06:15:53.679Z,100663.31
2023-01-29T06:16:26.807Z,100667.30
2023-01-29T06:16:59.849Z,100670.08
2023-01-29T06:18:10.448Z,100668.84
2023-01-29T06:19:59.053Z,100669.73
2023-01-29T06:21:11.653Z,100682.02
2023-01-29T06:22:22.409Z,100678.21
2023-01-29T06:22:55.283Z,100683.64
2023-01-29T06:23:28.211Z,100678.80
2023-01-29T06:24:01.269Z,100686.64
2023-01-29T06:25:49.973Z,100678.98
2023-01-29T06:27:00.735Z,100680.55
2023-01-29T06:28:11.389Z,100679.98
2023-01-29T06:28:46.207Z,100689.75
2023-01-29T06:29:19.076Z,100677.11
2023-01-29T06:29:52.048Z,100684.27
2023-01-29T06:31:23.840Z,100686.16
2023-01-29T06:31:56.733Z,100678.90
2023-01-29T06:32:29.797Z,100678.25
2023-01-29T06:33:03.128Z,100684.73
2023-01-29T06:33:36.087Z,100691.56
2023-01-29T06:34:08.970Z,100681.29
2023-01-29T06:35:19.937Z,100679.24
2023-01-29T06:35:59.974Z,100688.86
2023-01-29T06:36:32.879Z,100693.80
2023-01-29T06:37:06.223Z,100684.58
2023-01-29T06:37:39.046Z,100691.73
2023-01-29T06:39:27.440Z,100687.13
2023-01-29T06:40:39.121Z,100684.95
2023-01-29T06:41:19.258Z,100682.34
2023-01-29T06:41:52.231Z,100685.13
2023-01-29T06:42:28.253Z,100685.64
2023-01-29T06:43:01.719Z,100673.41
2023-01-29T06:44:12.525Z,100685.29
2023-01-29T06:45:24.236Z,100682.98
2023-01-29T06:48:28.678Z,100697.87
2023-01-29T06:49:39.587Z,100683.06
2023-01-29T06:50:50.963Z,100681.22
2023-01-29T06:52:01.822Z,100691.37
2023-01-29T06:52:34.725Z,100688.17
2023-01-29T06:53:07.672Z,100689.70
2023-01-29T06:54:19.960Z,100691.10
2023-01-29T06:56:08.819Z,100684.09
2023-01-29T06:56:41.886Z,100688.11
2023-01-29T06:57:52.850Z,100684.80
2023-01-29T06:58:25.925Z,100690.64
2023-01-29T06:58:58.907Z,100693.39
2023-01-29T07:00:10.670Z,100686.13
2023-01-29T07:01:35.158Z,100706.99
2023-01-29T07:02:50.226Z,100699.58
2023-01-29T07:03:23.298Z,100684.42
2023-01-29T07:03:56.252Z,100697.55
2023-01-29T07:05:07.492Z,100682.77
2023-01-29T07:05:40.413Z,100683.62
2023-01-29T07:06:51.067Z,100684.08
2023-01-29T07:08:39.610Z,100684.01
2023-01-29T07:09:16.433Z,100686.30
2023-01-29T07:09:49.349Z,100685.02
2023-01-29T07:10:22.142Z,100679.75
2023-01-29T07:11:39.855Z,100676.56
2023-01-29T07:12:50.699Z,100678.77
2023-01-29T07:13:23.671Z,100682.57
2023-01-29T07:13:57.080Z,100698.02
2023-01-29T07:14:30.026Z,100685.61
2023-01-29T07:15:03.001Z,100681.55
2023-01-29T07:15:37.263Z,100676.11
2023-01-29T07:16:10.322Z,100674.41
2023-01-29T07:18:41.783Z,100672.63
2023-01-29T07:19:14.802Z,100677.65
2023-01-29T07:19:47.717Z,100677.47
2023-01-29T07:20:20.646Z,100676.98
2023-01-29T07:22:09.189Z,100688.45
2023-01-29T07:22:42.161Z,100690.23
2023-01-29T07:25:09.429Z,100685.09
2023-01-29T07:26:20.376Z,100688.16
2023-01-29T07:27:31.759Z,100693.06
2023-01-29T07:29:58.223Z,100694.95
2023-01-29T07:31:09.389Z,100689.73
2023-01-29T07:32:20.136Z,100685.13
2023-01-29T07:32:53.186Z,100682.11
2023-01-29T07:33:26.159Z,100687.06
2023-01-29T07:33:59.131Z,100688.38
2023-01-29T07:35:48.392Z,100679.52
2023-01-29T07:36:21.366Z,100676.33
2023-01-29T07:36:54.643Z,100678.48
2023-01-29T07:37:27.619Z,100682.30
2023-01-29T07:38:00.534Z,100680.54
2023-01-29T07:39:11.144Z,100676.26
2023-01-29T07:39:44.424Z,100673.48
2023-01-29T07:40:18.078Z,100672.88
2023-01-29T07:41:32.048Z,100668.98
2023-01-29T07:42:44.243Z,100665.11
2023-01-29T07:43:17.331Z,100669.91
2023-01-29T07:43:50.297Z,100664.59
2023-01-29T07:44:23.363Z,100656.85
2023-01-29T07:44:56.352Z,100650.39
2023-01-29T07:45:29.984Z,100652.08
2023-01-29T07:46:04.219Z,100648.68
2023-01-29T07:46:37.202Z,100648.27
2023-01-29T07:47:10.173Z,100648.71
2023-01-29T07:47:43.145Z,100650.34
2023-01-29T07:48:16.021Z,100649.03
2023-01-29T07:49:26.779Z,100651.30
2023-01-29T07:50:37.637Z,100652.30
2023-01-29T07:51:10.608Z,100648.05
2023-01-29T07:52:59.257Z,100648.97
2023-01-29T07:53:32.960Z,100640.33
2023-01-29T07:54:06.039Z,100637.19
2023-01-29T07:54:38.995Z,100636.02
2023-01-29T07:55:49.860Z,100633.03
2023-01-29T07:57:00.514Z,100623.25
2023-01-29T07:58:11.270Z,100626.66
2023-01-29T07:59:21.873Z,100623.73
2023-01-29T08:01:10.622Z,100626.97
2023-01-29T08:03:06.696Z,100621.13
2023-01-29T08:04:17.558Z,100622.90
2023-01-29T08:04:50.632Z,100619.48
2023-01-29T08:06:01.801Z,100625.86
2023-01-29T08:08:06.143Z,100628.90
2023-01-29T08:09:17.819Z,100629.44
2023-01-29T08:09:50.770Z,100624.08
2023-01-29T08:11:02.960Z,100623.46
2023-01-29T08:11:35.934Z,100635.23
2023-01-29T08:12:08.939Z,100628.66
2023-01-29T08:13:19.580Z,100626.87
2023-01-29T08:13:52.802Z,100629.24
2023-01-29T08:15:47.637Z,100626.50
2023-01-29T08:16:58.245Z,100620.40
2023-01-29T08:17:31.161Z,100622.70
2023-01-29T08:18:47.831Z,100615.86
2023-01-29T08:19:58.524Z,100615.25
2023-01-29T08:20:31.486Z,100614.39
2023-01-29T08:22:19.883Z,100613.46
2023-01-29T08:24:22.224Z,100608.80
2023-01-29T08:26:10.843Z,100612.14
2023-01-29T08:27:59.701Z,100609.66
2023-01-29T08:28:32.775Z,100612.80
2023-01-29T08:29:43.630Z,100611.33
2023-01-29T08:30:17.652Z,100610.11
2023-01-29T08:30:51.584Z,100610.39
2023-01-29T08:32:40.578Z,100604.60
2023-01-29T08:33:52.857Z,100609.41
2023-01-29T08:35:03.806Z,100613.67
2023-01-29T08:35:37.117Z,100615.98
2023-01-29T08:36:10.526Z,100612.80
2023-01-29T08:38:39.288Z,100605.80
2023-01-29T08:39:12.260Z,100600.63
2023-01-29T08:41:39.100Z,100596.86
2023-01-29T08:42:49.862Z,100601.55
2023-01-29T08:43:22.887Z,100591.90
2023-01-29T08:43:56.010Z,100591.48
2023-01-29T08:44:28.984Z,100598.90
2023-01-29T08:46:21.643Z,100590.10
2023-01-29T08:46:57.580Z,100590.17
2023-01-29T08:48:08.634Z,100588.40
2023-01-29T08:48:41.607Z,100588.77
2023-01-29T08:51:51.766Z,100595.45
2023-01-29T08:53:04.490Z,100589.15
2023-01-29T08:53:37.354Z,100587.54
2023-01-29T08:54:10.412Z,100586.34
2023-01-29T08:54:43.230Z,100593.31
2023-01-29T08:55:16.392Z,100592.38
2023-01-29T08:56:27.424Z,100596.27
2023-01-29T08:57:38.932Z,100584.81
2023-01-29T08:58:50.274Z,100583.64
2023-01-29T09:00:01.033Z,100588.90
2023-01-29T09:01:51.317Z,100592.09
2023-01-29T09:03:03.347Z,100584.31
2023-01-29T09:03:36.384Z,100584.64
2023-01-29T09:04:09.454Z,100583.91
2023-01-29T09:04:42.429Z,100589.44
2023-01-29T09:05:53.225Z,100590.05
2023-01-29T09:06:26.188Z,100590.88
2023-01-29T09:06:59.241Z,100584.64
2023-01-29T09:07:32.325Z,100585.41
2023-01-29T09:08:05.896Z,100589.12
2023-01-29T09:08:39.177Z,100584.63
2023-01-29T09:09:12.075Z,100591.66
2023-01-29T09:11:01.005Z,100590.63
2023-01-29T09:12:11.760Z,100590.23
2023-01-29T09:13:22.525Z,100599.86
2023-01-29T09:13:55.352Z,100606.12
2023-01-29T09:14:28.580Z,100599.45
2023-01-29T09:15:01.583Z,100593.15
2023-01-29T09:16:12.202Z,100591.66
2023-01-29T09:19:20.104Z,100593.30
2023-01-29T09:19:53.314Z,100598.09
2023-01-29T09:20:26.256Z,100599.59
2023-01-29T09:20:59.338Z,100598.02
2023-01-29T09:22:48.180Z,100603.27
2023-01-29T09:23:58.937Z,100587.20
2023-01-29T09:24:32.876Z,100584.77
2023-01-29T09:25:06.420Z,100580.35
2023-01-29T09:25:39.501Z,100583.45
2023-01-29T09:26:50.258Z,100581.89
2023-01-29T09:28:01.218Z,100592.92
2023-01-29T09:29:11.975Z,100587.97
2023-01-29T09:29:44.948Z,100585.83
2023-01-29T09:30:18.756Z,100596.81
2023-01-29T09:31:29.706Z,100586.52
2023-01-29T09:33:20.123Z,100589.71
2023-01-29T09:33:53.067Z,100591.09
2023-01-29T09:34:26.038Z,100593.93
2023-01-29T09:34:58.955Z,100616.78
2023-01-29T09:36:47.868Z,100599.90
2023-01-29T09:37:23.460Z,100599.02
2023-01-29T09:37:57.085Z,100598.39
2023-01-29T09:39:41.738Z,100591.90
2023-01-29T09:40:38.880Z,100589.76
2023-01-29T09:41:24.046Z,100588.61
2023-01-29T09:42:02.063Z,100582.29
2023-01-29T09:42:41.356Z,100581.76
2023-01-29T09:43:23.848Z,100583.59
2023-01-29T09:44:00.145Z,100584.23
2023-01-29T09:44:41.976Z,100584.20
2023-01-29T09:45:16.763Z,100576.14
2023-01-29T09:46:02.197Z,100583.67
2023-01-29T09:51:05.030Z,100573.70
2023-01-29T09:53:07.423Z,100576.54
2023-01-29T09:53:43.783Z,100577.41
2023-01-29T09:54:18.148Z,100572.44
2023-01-29T09:55:07.802Z,100575.13
2023-01-29T09:55:50.968Z,100585.77
2023-01-29T09:56:28.965Z,100580.34
2023-01-29T09:57:39.912Z,100590.42
2023-01-29T09:59:40.965Z,100582.43
2023-01-29T10:00:16.860Z,100576.70
2023-01-29T10:01:11.238Z,100583.32
2023-01-29T10:01:50.761Z,100580.29
2023-01-29T10:03:43.352Z,100585.19
2023-01-29T10:04:25.263Z,100571.56
2023-01-29T10:05:18.931Z,100571.94
2023-01-29T10:06:33.929Z,100580.02
2023-01-29T10:08:34.212Z,100574.41
2023-01-29T10:09:30.263Z,100561.77
2023-01-29T10:11:39.966Z,100556.88
2023-01-29T10:12:16.160Z,100556.33
2023-01-29T10:13:23.433Z,100558.11
2023-01-29T10:14:19.959Z,100553.98
2023-01-29T10:15:18.371Z,100554.73
2023-01-29T10:16:42.918Z,100548.25
2023-01-29T10:17:48.147Z,100549.46
2023-01-29T10:18:48.345Z,100549.04
2023-01-29T10:19:35.350Z,100542.23
2023-01-29T10:20:39.571Z,100556.16
2023-01-29T10:21:30.629Z,100555.45
2023-01-29T10:22:42.131Z,100548.73
2023-01-29T10:23:37.232Z,100541.77
2023-01-29T10:24:28.793Z,100547.83
2023-01-29T10:25:42.965Z,100538.41
2023-01-29T10:26:15.978Z,100536.42
2023-01-29T10:26:49.940Z,100537.95
2023-01-29T10:27:22.858Z,100537.73
2023-01-29T10:27:57.736Z,100530.85
2023-01-29T10:28:43.345Z,100529.87
2023-01-29T10:29:18.291Z,100520.44
2023-01-29T10:30:40.808Z,100530.23
2023-01-29T10:31:28.173Z,100538.58
2023-01-29T10:32:06.224Z,100520.02
2023-01-29T10:33:48.791Z,100522.59
2023-01-29T10:34:45.972Z,100530.48
2023-01-29T10:37:41.716Z,100531.33
2023-01-29T10:38:40.245Z,100526.31
2023-01-29T10:40:47.161Z,100519.17
2023-01-29T10:42:06.901Z,100516.41
2023-01-29T10:43:29.059Z,100513.91
2023-01-29T10:44:33.366Z,100516.63
2023-01-29T10:45:21.799Z,100523.02
2023-01-29T11:21:29.882Z,100461.27
2023-01-29T11:22:38.020Z,100466.84
2023-01-29T11:23:28.611Z,100455.69
2023-01-29T11:24:12.085Z,100462.95
2023-01-29T11:24:45.856Z,100467.44
2023-01-29T11:25:58.951Z,100460.99
2023-01-29T11:26:33.725Z,100458.39
2023-01-29T11:27:40.312Z,100461.50
2023-01-29T11:28:13.268Z,100461.15
2023-01-29T11:28:47.976Z,100453.11
2023-01-29T11:29:45.152Z,100451.05
2023-01-29T11:32:15.313Z,100442.51
2023-01-29T11:33:09.350Z,100447.48
2023-01-29T11:33:42.217Z,100446.88
2023-01-29T11:34:33.464Z,100447.09
2023-01-29T11:35:27.085Z,100450.15
2023-01-29T11:35:59.902Z,100450.69
2023-01-29T11:36:35.168Z,100444.59
2023-01-29T11:37:16.037Z,100442.27
2023-01-29T11:37:49.025Z,100440.98
2023-01-29T11:38:24.189Z,100435.02
2023-01-29T11:39:09.411Z,100434.99
2023-01-29T11:40:37.888Z,100435.39
2023-01-29T11:41:22.307Z,100425.75
2023-01-29T11:41:58.176Z,100428.92
2023-01-29T11:42:31.532Z,100425.48
2023-01-29T11:43:26.742Z,100424.05
2023-01-29T11:44:00.738Z,100416.89
2023-01-29T11:46:13.954Z,100429.27
2023-01-29T11:50:20.333Z,100437.86
2023-01-29T11:50:57.604Z,100427.85
2023-01-29T11:52:09.444Z,100420.77
2023-01-29T11:53:45.212Z,100423.60
2023-01-29T11:54:18.278Z,100425.88
2023-01-29T11:54:53.807Z,100420.00
2023-01-29T11:55:29.609Z,100413.47
2023-01-29T11:56:16.536Z,100414.21
2023-01-29T11:56:51.907Z,100417.52
2023-01-29T11:58:29.452Z,100418.08
2023-01-29T11:59:48.575Z,100419.02
2023-01-29T12:02:26.796Z,100421.58
2023-01-29T12:03:18.568Z,100415.01
2023-01-29T12:04:31.138Z,100411.12
2023-01-29T12:05:07.201Z,100411.98
2023-01-29T12:05:40.722Z,100411.95
2023-01-29T12:07:02.892Z,100410.86
2023-01-29T12:08:17.395Z,100402.85
2023-01-29T12:08:58.190Z,100396.52
2023-01-29T12:10:29.852Z,100392.77
2023-01-29T12:11:16.312Z,100392.70
2023-01-29T12:11:49.307Z,100388.65
2023-01-29T12:12:25.350Z,100400.46
2023-01-29T12:13:27.817Z,100391.14
2023-01-29T12:14:05.289Z,100397.52
2023-01-29T12:14:38.978Z,100392.14
2023-01-29T12:15:17.530Z,100386.89